Time;durP1;ratioP1;P1;durP2;ratioP2;P2;SDS_P1;SDS_P2;PMS_P1;PMS_P2;Temp;Humidity;BMP_temperature;BMP_pressure;BME280_temperature;BME280_humidity;BME280_pressure;Samples;Min_cycle;Max_cycle;Signal;HPM_P1;HPM_P2
2023/12/31 00:00:38;;;;;;;10.80;10.30;;;;;;;;;;5069793;28;20059;-62
2023/12/31 00:03:03;;;;;;;10.90;10.40;;;;;;;;;;5059913;28;20031;-62
2023/12/31 00:05:29;;;;;;;10.55;10.05;;;;;;;;;;5062428;28;20028;-63
2023/12/31 00:07:54;;;;;;;10.77;10.27;;;;;;;;;;5061023;28;20024;-63
2023/12/31 00:10:19;;;;;;;10.30;9.80;;;;;;;;;;5058477;28;20551;-62
2023/12/31 00:12:45;;;;;;;10.55;10.05;;;;;;;;;;5064264;28;20024;-62
2023/12/31 00:15:10;;;;;;;10.95;10.45;;;;;;;;;;5060857;28;20024;-62
2023/12/31 00:17:35;;;;;;;10.73;10.23;;;;;;;;;;5060337;28;20052;-62
2023/12/31 00:20:01;;;;;;;11.32;10.73;;;;;;;;;;5058711;28;20099;-61
2023/12/31 00:22:26;;;;;;;10.98;10.48;;;;;;;;;;5066456;28;20498;-61
2023/12/31 00:24:54;;;;;;;10.70;10.20;;;;;;;;;;5071713;28;20032;-62
2023/12/31 00:27:19;;;;;;;10.20;9.70;;;;;;;;;;5070826;28;20028;-63
2023/12/31 00:29:44;;;;;;;10.40;9.90;;;;;;;;;;5071312;28;20016;-63
2023/12/31 00:32:10;;;;;;;10.43;9.93;;;;;;;;;;5070316;28;20119;-62
2023/12/31 00:34:35;;;;;;;10.60;10.10;;;;;;;;;;5067079;28;20036;-62
2023/12/31 00:37:01;;;;;;;10.60;10.10;;;;;;;;;;5066769;28;20078;-63
2023/12/31 00:39:26;;;;;;;10.77;10.27;;;;;;;;;;5071285;28;20029;-63
2023/12/31 00:41:52;;;;;;;10.52;10.02;;;;;;;;;;5066039;28;20028;-62
2023/12/31 00:44:17;;;;;;;10.20;9.70;;;;;;;;;;5075438;28;20024;-62
2023/12/31 00:46:42;;;;;;;11.27;10.68;;;;;;;;;;5067495;28;20029;-62
2023/12/31 00:49:08;;;;;;;10.73;10.23;;;;;;;;;;5071353;28;20035;-62
2023/12/31 00:51:33;;;;;;;10.77;10.27;;;;;;;;;;5057808;28;20021;-60
2023/12/31 00:53:58;;;;;;;10.82;10.32;;;;;;;;;;5071539;28;20103;-60
2023/12/31 00:56:24;;;;;;;10.70;10.20;;;;;;;;;;5068270;28;20456;-61
2023/12/31 00:58:49;;;;;;;10.40;9.90;;;;;;;;;;5065489;28;20024;-62
2023/12/31 01:01:14;;;;;;;10.55;10.05;;;;;;;;;;5065500;28;20024;-61
2023/12/31 01:03:39;;;;;;;10.80;10.30;;;;;;;;;;5067665;28;20039;-61
2023/12/31 01:06:05;;;;;;;11.40;10.80;;;;;;;;;;5061280;28;20020;-62
2023/12/31 01:08:31;;;;;;;11.05;10.55;;;;;;;;;;5065501;28;20799;-62
2023/12/31 01:10:56;;;;;;;11.15;10.65;;;;;;;;;;5062477;28;20028;-62
2023/12/31 01:13:22;;;;;;;10.88;10.38;;;;;;;;;;5061727;28;20100;-62
2023/12/31 01:15:47;;;;;;;11.05;10.52;;;;;;;;;;5065135;28;20052;-62
2023/12/31 01:18:13;;;;;;;10.98;10.48;;;;;;;;;;5067103;28;20048;-61
2023/12/31 01:20:38;;;;;;;11.23;10.68;;;;;;;;;;5068453;28;20751;-62
2023/12/31 01:23:03;;;;;;;11.48;10.88;;;;;;;;;;5065431;28;20025;-61
2023/12/31 01:25:29;;;;;;;10.52;10.02;;;;;;;;;;5067336;28;20450;-61
2023/12/31 01:27:55;;;;;;;10.32;9.82;;;;;;;;;;5069706;28;20104;-61
2023/12/31 01:30:21;;;;;;;12.10;11.50;;;;;;;;;;5070021;28;20402;-62
2023/12/31 01:32:48;;;;;;;10.57;10.07;;;;;;;;;;5064614;28;20089;-61
2023/12/31 01:35:13;;;;;;;11.63;11.02;;;;;;;;;;5064680;28;20598;-62
2023/12/31 01:37:38;;;;;;;10.98;10.48;;;;;;;;;;5071044;28;20032;-61
2023/12/31 01:40:04;;;;;;;11.15;10.65;;;;;;;;;;5067133;28;20545;-61
2023/12/31 01:42:29;;;;;;;11.00;10.50;;;;;;;;;;5064069;28;20025;-62
2023/12/31 01:44:55;;;;;;;11.38;10.77;;;;;;;;;;5059236;28;20062;-62
2023/12/31 01:47:21;;;;;;;11.73;11.13;;;;;;;;;;5065897;28;20032;-61
2023/12/31 01:49:47;;;;;;;11.50;10.90;;;;;;;;;;5071029;28;20025;-62
2023/12/31 01:52:12;;;;;;;11.32;10.73;;;;;;;;;;5061072;28;20672;-62
2023/12/31 01:54:38;;;;;;;11.35;10.77;;;;;;;;;;5073834;28;20020;-62
2023/12/31 01:57:04;;;;;;;11.43;10.85;;;;;;;;;;5067297;28;20438;-61
2023/12/31 01:59:29;;;;;;;11.02;10.52;;;;;;;;;;5070126;28;20024;-61
2023/12/31 02:01:54;;;;;;;11.23;10.70;;;;;;;;;;5067473;28;20119;-61
2023/12/31 02:04:20;;;;;;;11.15;10.65;;;;;;;;;;5068818;28;20016;-61
2023/12/31 02:06:46;;;;;;;11.80;11.20;;;;;;;;;;5067427;28;20029;-61
2023/12/31 02:09:11;;;;;;;11.13;10.63;;;;;;;;;;5062129;28;20036;-63
2023/12/31 02:11:37;;;;;;;11.48;10.88;;;;;;;;;;5066763;28;20025;-61
2023/12/31 02:14:03;;;;;;;11.07;10.57;;;;;;;;;;5068523;28;20425;-61
2023/12/31 02:16:28;;;;;;;11.02;10.52;;;;;;;;;;5057537;28;20566;-61
2023/12/31 02:18:53;;;;;;;11.50;10.90;;;;;;;;;;5065258;28;20082;-60
2023/12/31 02:21:19;;;;;;;11.82;11.23;;;;;;;;;;5068297;28;20086;-60
2023/12/31 02:23:45;;;;;;;11.40;10.80;;;;;;;;;;5062703;28;20031;-61
2023/12/31 02:26:11;;;;;;;11.02;10.52;;;;;;;;;;5067834;28;20016;-61
2023/12/31 02:28:36;;;;;;;10.30;9.80;;;;;;;;;;5069094;28;20025;-62
2023/12/31 02:31:02;;;;;;;12.05;11.43;;;;;;;;;;5064824;28;20020;-61
2023/12/31 02:33:28;;;;;;;10.90;10.40;;;;;;;;;;5072985;28;20020;-61
2023/12/31 02:35:53;;;;;;;11.23;10.68;;;;;;;;;;5069130;28;20020;-61
2023/12/31 02:38:18;;;;;;;10.43;9.93;;;;;;;;;;5073501;28;20563;-60
2023/12/31 02:40:44;;;;;;;10.70;10.20;;;;;;;;;;5072062;28;20026;-61
2023/12/31 02:43:09;;;;;;;10.70;10.20;;;;;;;;;;5070396;28;20017;-61
2023/12/31 02:45:35;;;;;;;11.80;11.20;;;;;;;;;;5066985;28;20040;-62
2023/12/31 02:48:00;;;;;;;10.48;9.98;;;;;;;;;;5068094;28;20112;-62
2023/12/31 02:50:25;;;;;;;12.38;11.70;;;;;;;;;;5059896;28;20025;-62
2023/12/31 02:52:53;;;;;;;11.00;10.50;;;;;;;;;;5061197;28;20127;-62
2023/12/31 02:55:19;;;;;;;10.90;10.40;;;;;;;;;;5065645;28;20032;-61
2023/12/31 02:57:44;;;;;;;10.85;10.35;;;;;;;;;;5065902;28;20042;-61
2023/12/31 03:00:10;;;;;;;10.80;10.30;;;;;;;;;;5068021;28;20021;-61
2023/12/31 03:02:35;;;;;;;10.60;10.10;;;;;;;;;;5070490;28;20528;-62
2023/12/31 03:05:01;;;;;;;10.65;10.15;;;;;;;;;;5069161;28;20016;-61
2023/12/31 03:07:26;;;;;;;11.32;10.75;;;;;;;;;;5069027;28;20023;-61
2023/12/31 03:09:52;;;;;;;10.73;10.23;;;;;;;;;;5073151;28;20028;-61
2023/12/31 03:12:17;;;;;;;10.70;10.20;;;;;;;;;;5072398;28;20024;-60
2023/12/31 03:14:42;;;;;;;10.60;10.10;;;;;;;;;;5069209;28;20035;-61
2023/12/31 03:17:08;;;;;;;10.63;10.13;;;;;;;;;;5072577;28;20056;-61
2023/12/31 03:19:36;;;;;;;11.30;10.70;;;;;;;;;;5065437;28;20024;-61
2023/12/31 03:22:02;;;;;;;11.05;10.48;;;;;;;;;;5060685;28;20029;-63
2023/12/31 03:24:28;;;;;;;10.50;10.00;;;;;;;;;;5064781;28;20028;-61
2023/12/31 03:26:53;;;;;;;11.02;10.50;;;;;;;;;;5068707;28;20029;-61
2023/12/31 03:29:18;;;;;;;10.60;10.10;;;;;;;;;;5066989;28;20353;-61
2023/12/31 03:31:44;;;;;;;10.93;10.43;;;;;;;;;;5066075;28;20047;-62
2023/12/31 03:34:09;;;;;;;11.55;10.95;;;;;;;;;;5061102;28;20026;-61
2023/12/31 03:36:35;;;;;;;12.00;11.38;;;;;;;;;;5064412;28;20116;-61
2023/12/31 03:39:00;;;;;;;10.85;10.35;;;;;;;;;;5062843;28;20024;-62
2023/12/31 03:41:26;;;;;;;11.02;10.48;;;;;;;;;;5058874;28;20032;-62
2023/12/31 03:43:51;;;;;;;11.23;10.65;;;;;;;;;;5064602;28;20100;-62
2023/12/31 03:46:16;;;;;;;10.68;10.18;;;;;;;;;;5069830;28;20020;-61
2023/12/31 03:48:42;;;;;;;10.70;10.20;;;;;;;;;;5073775;28;20105;-62
2023/12/31 03:51:08;;;;;;;11.35;10.75;;;;;;;;;;5063349;28;20029;-61
2023/12/31 03:53:33;;;;;;;10.82;10.32;;;;;;;;;;5063299;28;20029;-62
2023/12/31 03:55:58;;;;;;;10.90;10.40;;;;;;;;;;5066806;28;20021;-62
2023/12/31 03:58:24;;;;;;;11.82;11.23;;;;;;;;;;5056956;28;20031;-61
2023/12/31 04:00:49;;;;;;;11.43;10.82;;;;;;;;;;5067249;28;20115;-62
2023/12/31 04:03:14;;;;;;;11.38;10.77;;;;;;;;;;5066703;28;20656;-61
2023/12/31 04:05:40;;;;;;;11.57;10.98;;;;;;;;;;5062180;28;20017;-62
2023/12/31 04:08:05;;;;;;;11.35;10.75;;;;;;;;;;5066904;28;20054;-61
2023/12/31 04:10:30;;;;;;;11.13;10.60;;;;;;;;;;5057141;28;20036;-62
2023/12/31 04:12:56;;;;;;;12.10;11.50;;;;;;;;;;5062124;28;20052;-62
2023/12/31 04:15:21;;;;;;;10.93;10.43;;;;;;;;;;5063160;28;20063;-62
2023/12/31 04:17:46;;;;;;;11.10;10.57;;;;;;;;;;5063009;28;20061;-61
2023/12/31 04:20:12;;;;;;;11.23;10.65;;;;;;;;;;5070241;28;20033;-63
2023/12/31 04:22:37;;;;;;;12.07;11.45;;;;;;;;;;5064096;28;20031;-61
2023/12/31 04:25:03;;;;;;;11.68;11.07;;;;;;;;;;5062639;28;20124;-61
2023/12/31 04:27:31;;;;;;;11.80;11.20;;;;;;;;;;5064870;28;20078;-61
2023/12/31 04:29:56;;;;;;;11.77;11.18;;;;;;;;;;5059045;28;20032;-62
2023/12/31 04:32:22;;;;;;;11.15;10.57;;;;;;;;;;5061383;28;20094;-62
2023/12/31 04:34:47;;;;;;;11.50;10.90;;;;;;;;;;5066761;28;20490;-62
2023/12/31 04:37:12;;;;;;;12.00;11.40;;;;;;;;;;5065604;28;20060;-62
2023/12/31 04:39:39;;;;;;;11.57;10.98;;;;;;;;;;5062925;28;20024;-62
2023/12/31 04:42:05;;;;;;;10.88;10.38;;;;;;;;;;5059491;28;20095;-63
2023/12/31 04:44:30;;;;;;;10.98;10.48;;;;;;;;;;5065420;28;20108;-62
2023/12/31 04:46:55;;;;;;;11.25;10.65;;;;;;;;;;5066012;28;20032;-63
2023/12/31 04:49:21;;;;;;;10.95;10.45;;;;;;;;;;5068471;28;20025;-61
2023/12/31 04:51:46;;;;;;;11.50;10.90;;;;;;;;;;5063961;28;20499;-62
2023/12/31 04:54:13;;;;;;;10.55;10.05;;;;;;;;;;5071069;28;20107;-61
2023/12/31 04:56:38;;;;;;;10.80;10.30;;;;;;;;;;5060922;28;20036;-62
2023/12/31 04:59:04;;;;;;;11.57;10.98;;;;;;;;;;5061948;28;20025;-61
2023/12/31 05:01:32;;;;;;;11.20;10.60;;;;;;;;;;5065257;28;20086;-62
2023/12/31 05:03:57;;;;;;;11.50;10.90;;;;;;;;;;5063826;28;20017;-61
2023/12/31 05:06:23;;;;;;;12.20;11.50;;;;;;;;;;5063248;28;20028;-61
2023/12/31 05:08:48;;;;;;;11.23;10.63;;;;;;;;;;5059043;28;20032;-61
2023/12/31 05:11:14;;;;;;;11.10;10.60;;;;;;;;;;5059097;28;20025;-61
2023/12/31 05:13:40;;;;;;;12.25;11.55;;;;;;;;;;5061849;28;20020;-61
2023/12/31 05:16:06;;;;;;;11.75;11.15;;;;;;;;;;5059918;28;20400;-62
2023/12/31 05:18:31;;;;;;;11.07;10.50;;;;;;;;;;5061161;28;20032;-61
2023/12/31 05:20:56;;;;;;;11.25;10.65;;;;;;;;;;5059129;28;20035;-61
2023/12/31 05:23:22;;;;;;;11.60;11.00;;;;;;;;;;5058394;28;20013;-62
2023/12/31 05:25:49;;;;;;;11.43;10.82;;;;;;;;;;5062248;28;20025;-62
2023/12/31 05:28:15;;;;;;;11.40;10.80;;;;;;;;;;5060188;28;20078;-61
2023/12/31 05:30:42;;;;;;;11.80;11.20;;;;;;;;;;5063872;28;20106;-61
2023/12/31 05:33:12;;;;;;;11.77;11.18;;;;;;;;;;5061901;28;20036;-60
2023/12/31 05:35:37;;;;;;;11.70;11.10;;;;;;;;;;5062465;28;20028;-62
2023/12/31 05:38:02;;;;;;;12.60;11.90;;;;;;;;;;5060573;28;20033;-62
2023/12/31 05:40:28;;;;;;;11.13;10.60;;;;;;;;;;5062005;28;20033;-62
2023/12/31 05:42:53;;;;;;;11.73;11.13;;;;;;;;;;5061004;28;20025;-61
2023/12/31 05:45:19;;;;;;;12.20;11.55;;;;;;;;;;5063644;28;20030;-61
2023/12/31 05:47:47;;;;;;;12.82;12.13;;;;;;;;;;5067927;28;20082;-61
2023/12/31 05:50:13;;;;;;;11.82;11.23;;;;;;;;;;5065691;28;20039;-63
2023/12/31 05:52:38;;;;;;;11.82;11.23;;;;;;;;;;5065182;28;20025;-61
2023/12/31 05:55:04;;;;;;;11.50;10.90;;;;;;;;;;5062089;28;20427;-63
2023/12/31 05:57:29;;;;;;;11.10;10.60;;;;;;;;;;5060800;28;20025;-67
2023/12/31 05:59:55;;;;;;;11.52;10.93;;;;;;;;;;5062605;28;20013;-62
2023/12/31 06:02:22;;;;;;;11.80;11.20;;;;;;;;;;5058745;28;20389;-63
2023/12/31 06:04:47;;;;;;;11.68;11.07;;;;;;;;;;5071064;28;20086;-61
2023/12/31 06:07:12;;;;;;;11.25;10.70;;;;;;;;;;5069084;28;20040;-62
2023/12/31 06:09:38;;;;;;;12.30;11.60;;;;;;;;;;5062187;28;20025;-62
2023/12/31 06:12:03;;;;;;;11.15;10.57;;;;;;;;;;5065757;28;20029;-61
2023/12/31 06:14:29;;;;;;;11.10;10.50;;;;;;;;;;5061022;28;20067;-62
2023/12/31 06:16:54;;;;;;;11.05;10.45;;;;;;;;;;5064865;28;20056;-62
2023/12/31 06:19:19;;;;;;;10.48;9.98;;;;;;;;;;5062795;28;20021;-62
2023/12/31 06:21:45;;;;;;;10.23;9.73;;;;;;;;;;5068044;28;20027;-61
2023/12/31 06:24:10;;;;;;;10.38;9.88;;;;;;;;;;5068959;28;20537;-62
2023/12/31 06:26:35;;;;;;;10.57;10.07;;;;;;;;;;5064788;28;20027;-61
2023/12/31 06:29:01;;;;;;;10.90;10.32;;;;;;;;;;5062650;28;20019;-61
2023/12/31 06:31:26;;;;;;;10.88;10.27;;;;;;;;;;5066202;28;20032;-62
2023/12/31 06:33:52;;;;;;;10.48;9.98;;;;;;;;;;5067540;28;20028;-62
2023/12/31 06:36:17;;;;;;;10.95;10.40;;;;;;;;;;5060856;28;20020;-61
2023/12/31 06:38:43;;;;;;;11.27;10.68;;;;;;;;;;5068454;28;20054;-61
2023/12/31 06:41:08;;;;;;;10.98;10.45;;;;;;;;;;5064423;28;20028;-62
2023/12/31 06:43:37;;;;;;;10.90;10.40;;;;;;;;;;5058765;28;20032;-61
2023/12/31 06:46:03;;;;;;;10.82;10.32;;;;;;;;;;5062269;28;20044;-61
2023/12/31 06:48:28;;;;;;;11.90;11.30;;;;;;;;;;5064404;28;20021;-62
2023/12/31 06:50:53;;;;;;;10.93;10.43;;;;;;;;;;5063113;28;21201;-63
2023/12/31 06:53:19;;;;;;;11.00;10.50;;;;;;;;;;5068352;28;20055;-62
2023/12/31 06:55:44;;;;;;;12.13;11.52;;;;;;;;;;5060943;28;20052;-62
2023/12/31 06:58:09;;;;;;;11.80;11.20;;;;;;;;;;5065752;28;20131;-64
2023/12/31 07:00:35;;;;;;;11.45;10.93;;;;;;;;;;5063959;28;20486;-63
2023/12/31 07:03:01;;;;;;;11.65;11.05;;;;;;;;;;5074444;28;20012;-61
2023/12/31 07:05:26;;;;;;;11.38;10.88;;;;;;;;;;5064210;28;20025;-62
2023/12/31 07:07:51;;;;;;;11.65;11.05;;;;;;;;;;5068666;28;20032;-62
2023/12/31 07:10:17;;;;;;;11.95;11.38;;;;;;;;;;5064771;28;20021;-62
2023/12/31 07:12:42;;;;;;;11.55;11.05;;;;;;;;;;5062162;28;20021;-63
2023/12/31 07:15:09;;;;;;;12.00;11.40;;;;;;;;;;5065506;28;20035;-62
2023/12/31 07:17:34;;;;;;;11.48;10.98;;;;;;;;;;5064774;28;20131;-61
2023/12/31 07:19:59;;;;;;;12.13;11.52;;;;;;;;;;5061921;28;20100;-63
2023/12/31 07:22:25;;;;;;;12.07;11.50;;;;;;;;;;5063392;28;20041;-62
2023/12/31 07:24:50;;;;;;;12.35;11.75;;;;;;;;;;5065800;28;20468;-61
2023/12/31 07:27:15;;;;;;;12.38;11.77;;;;;;;;;;5062049;28;20052;-62
2023/12/31 07:29:41;;;;;;;12.20;11.60;;;;;;;;;;5065301;28;20105;-62
2023/12/31 07:32:06;;;;;;;13.23;12.63;;;;;;;;;;5060635;28;20024;-60
2023/12/31 07:34:31;;;;;;;14.00;13.30;;;;;;;;;;5056816;28;20448;-62
2023/12/31 07:36:57;;;;;;;13.25;12.63;;;;;;;;;;5064297;28;20028;-63
2023/12/31 07:39:22;;;;;;;12.65;12.05;;;;;;;;;;5060573;28;20039;-64
2023/12/31 07:41:47;;;;;;;12.88;12.27;;;;;;;;;;5057281;28;20020;-63
2023/12/31 07:44:13;;;;;;;12.57;11.98;;;;;;;;;;5059118;28;20047;-63
2023/12/31 07:46:38;;;;;;;12.40;11.80;;;;;;;;;;5062055;28;20025;-63
2023/12/31 07:49:03;;;;;;;12.25;11.65;;;;;;;;;;5059254;28;20013;-62
2023/12/31 07:51:29;;;;;;;12.13;11.52;;;;;;;;;;5063282;28;20070;-59
2023/12/31 07:53:55;;;;;;;12.07;11.48;;;;;;;;;;5056363;28;20047;-60
2023/12/31 07:56:20;;;;;;;12.63;12.02;;;;;;;;;;5063655;28;20032;-59
2023/12/31 07:58:45;;;;;;;11.57;11.02;;;;;;;;;;5063549;28;20020;-59
2023/12/31 08:01:11;;;;;;;11.70;11.13;;;;;;;;;;5061331;28;20031;-61
2023/12/31 08:03:36;;;;;;;11.63;11.10;;;;;;;;;;5059250;28;20033;-63
2023/12/31 08:06:03;;;;;;;11.50;11.00;;;;;;;;;;5059647;28;20013;-63
2023/12/31 08:08:29;;;;;;;12.20;11.60;;;;;;;;;;5061728;28;20017;-61
2023/12/31 08:10:55;;;;;;;12.32;11.73;;;;;;;;;;5065991;28;20081;-61
2023/12/31 08:13:20;;;;;;;11.30;10.80;;;;;;;;;;5065844;28;20020;-62
2023/12/31 08:15:46;;;;;;;12.00;11.40;;;;;;;;;;5067317;28;20034;-62
2023/12/31 08:18:11;;;;;;;12.43;11.82;;;;;;;;;;5069528;28;20499;-61
2023/12/31 08:20:37;;;;;;;12.40;11.80;;;;;;;;;;5066636;28;20031;-63
2023/12/31 08:23:03;;;;;;;11.60;11.00;;;;;;;;;;5067780;28;20086;-64
2023/12/31 08:25:28;;;;;;;11.50;11.00;;;;;;;;;;5069055;28;20024;-63
2023/12/31 08:27:55;;;;;;;11.70;11.10;;;;;;;;;;5067719;28;20045;-63
2023/12/31 08:30:20;;;;;;;12.55;11.93;;;;;;;;;;5065775;28;20120;-63
2023/12/31 08:32:45;;;;;;;11.50;10.98;;;;;;;;;;5063577;28;20024;-64
2023/12/31 08:35:11;;;;;;;11.20;10.70;;;;;;;;;;5066835;28;20016;-61
2023/12/31 08:37:36;;;;;;;12.05;11.45;;;;;;;;;;5065424;28;20029;-62
2023/12/31 08:40:03;;;;;;;11.10;10.60;;;;;;;;;;5065208;28;20048;-62
2023/12/31 08:42:28;;;;;;;11.00;10.50;;;;;;;;;;5063016;28;20153;-62
2023/12/31 08:44:53;;;;;;;11.25;10.75;;;;;;;;;;5069051;28;20028;-64
2023/12/31 08:47:19;;;;;;;11.50;11.00;;;;;;;;;;5070411;28;20437;-64
2023/12/31 08:49:44;;;;;;;12.55;11.95;;;;;;;;;;5065613;28;20556;-62
2023/12/31 08:52:10;;;;;;;12.13;11.60;;;;;;;;;;5061136;28;20419;-63
2023/12/31 08:54:35;;;;;;;12.13;11.63;;;;;;;;;;5063991;28;20391;-63
2023/12/31 08:57:02;;;;;;;12.60;12.00;;;;;;;;;;5067311;28;20391;-63
2023/12/31 08:59:28;;;;;;;12.75;12.15;;;;;;;;;;5063806;28;20028;-63
2023/12/31 09:01:53;;;;;;;12.20;11.70;;;;;;;;;;5059447;28;20059;-62
2023/12/31 09:04:19;;;;;;;12.70;12.10;;;;;;;;;;5063179;28;20025;-63
2023/12/31 09:06:46;;;;;;;13.00;12.40;;;;;;;;;;5059774;28;20052;-63
2023/12/31 09:09:11;;;;;;;12.70;12.10;;;;;;;;;;5059771;28;20013;-63
2023/12/31 09:11:36;;;;;;;13.07;12.48;;;;;;;;;;5060819;28;20032;-63
2023/12/31 09:14:02;;;;;;;13.10;12.50;;;;;;;;;;5064018;28;20020;-64
2023/12/31 09:16:27;;;;;;;13.00;12.40;;;;;;;;;;5066971;28;20059;-61
2023/12/31 09:18:53;;;;;;;12.95;12.35;;;;;;;;;;5060869;28;20028;-63
2023/12/31 09:21:18;;;;;;;12.95;12.35;;;;;;;;;;5066649;28;20089;-63
2023/12/31 09:23:43;;;;;;;13.02;12.43;;;;;;;;;;5069673;28;20046;-63
2023/12/31 09:26:10;;;;;;;13.07;12.48;;;;;;;;;;5065577;28;20021;-61
2023/12/31 09:28:35;;;;;;;13.25;12.65;;;;;;;;;;5064641;28;20029;-63
2023/12/31 09:31:01;;;;;;;12.80;12.20;;;;;;;;;;5066027;28;20647;-63
2023/12/31 09:33:26;;;;;;;13.00;12.40;;;;;;;;;;5061588;28;20020;-62
2023/12/31 09:35:51;;;;;;;13.00;12.40;;;;;;;;;;5065072;28;20033;-63
2023/12/31 09:38:17;;;;;;;13.52;12.93;;;;;;;;;;5064754;28;20008;-62
2023/12/31 09:40:43;;;;;;;13.57;12.98;;;;;;;;;;5068247;28;20039;-62
2023/12/31 09:43:10;;;;;;;13.00;12.40;;;;;;;;;;5066776;28;20259;-62
2023/12/31 09:45:35;;;;;;;13.18;12.57;;;;;;;;;;5076349;28;20107;-62
2023/12/31 09:48:04;;;;;;;13.00;12.40;;;;;;;;;;5073307;28;20112;-79
2023/12/31 09:50:32;;;;;;;12.95;12.35;;;;;;;;;;5091948;28;20029;-64
2023/12/31 09:52:59;;;;;;;13.57;12.98;;;;;;;;;;5067092;28;20013;-63
2023/12/31 09:55:25;;;;;;;12.85;12.25;;;;;;;;;;5064079;28;20021;-62
2023/12/31 09:57:54;;;;;;;14.10;13.40;;;;;;;;;;5068068;28;20376;-62
2023/12/31 10:00:20;;;;;;;12.95;12.35;;;;;;;;;;5065707;28;20357;-62
2023/12/31 10:02:46;;;;;;;13.07;12.48;;;;;;;;;;5066372;28;20035;-61
2023/12/31 10:05:12;;;;;;;12.95;12.35;;;;;;;;;;5067252;28;20028;-61
2023/12/31 10:07:38;;;;;;;12.98;12.38;;;;;;;;;;5063669;28;20561;-62
2023/12/31 10:10:04;;;;;;;12.90;12.30;;;;;;;;;;5061375;28;20025;-62
2023/12/31 10:12:30;;;;;;;12.48;11.88;;;;;;;;;;5067636;28;20815;-61
2023/12/31 10:14:55;;;;;;;13.38;12.77;;;;;;;;;;5071513;28;20479;-61
2023/12/31 10:17:21;;;;;;;12.65;12.05;;;;;;;;;;5066891;28;20048;-59
2023/12/31 10:19:46;;;;;;;12.80;12.20;;;;;;;;;;5065315;28;20074;-60
2023/12/31 10:22:13;;;;;;;12.88;12.27;;;;;;;;;;5066681;28;20063;-61
2023/12/31 10:24:39;;;;;;;13.13;12.52;;;;;;;;;;5064308;28;20028;-61
2023/12/31 10:27:05;;;;;;;12.50;11.90;;;;;;;;;;5065268;28;20074;-61
2023/12/31 10:29:33;;;;;;;12.23;11.63;;;;;;;;;;5072254;28;20024;-60
2023/12/31 10:31:58;;;;;;;12.18;11.57;;;;;;;;;;5078268;28;20028;-60
2023/12/31 10:34:24;;;;;;;12.13;11.52;;;;;;;;;;5072048;28;20036;-61
2023/12/31 10:36:49;;;;;;;12.98;12.38;;;;;;;;;;5069686;28;20021;-61
2023/12/31 10:39:41;;;;;;;12.90;12.30;;;;;;;;;;5071538;28;20039;-61
2023/12/31 10:42:06;;;;;;;12.80;12.20;;;;;;;;;;5073621;28;21327;-61
2023/12/31 10:44:33;;;;;;;12.68;12.07;;;;;;;;;;5071648;28;20100;-61
2023/12/31 10:47:01;;;;;;;12.38;11.77;;;;;;;;;;5072837;28;20048;-61
2023/12/31 10:49:29;;;;;;;12.05;11.45;;;;;;;;;;5076441;28;20074;-61
2023/12/31 10:51:55;;;;;;;11.70;11.15;;;;;;;;;;5069858;28;20020;-62
2023/12/31 10:54:35;;;;;;;12.70;12.10;;;;;;;;;;5070624;28;20039;-60
2023/12/31 10:57:01;;;;;;;11.70;11.20;;;;;;;;;;5072708;28;20027;-61
2023/12/31 10:59:26;;;;;;;11.60;11.10;;;;;;;;;;5072930;28;20025;-60
2023/12/31 11:01:52;;;;;;;11.77;11.25;;;;;;;;;;5071784;28;20025;-62
2023/12/31 11:04:18;;;;;;;11.60;11.10;;;;;;;;;;5072507;28;20017;-61
2023/12/31 11:06:47;;;;;;;12.18;11.57;;;;;;;;;;5072232;28;20020;-60
2023/12/31 11:09:13;;;;;;;12.18;11.57;;;;;;;;;;5056665;28;20370;-60
2023/12/31 11:11:38;;;;;;;12.63;12.02;;;;;;;;;;5070012;28;20434;-62
2023/12/31 11:14:06;;;;;;;12.30;11.70;;;;;;;;;;5071933;28;20021;-60
2023/12/31 11:16:50;;;;;;;12.85;12.25;;;;;;;;;;5066820;28;20044;-61
2023/12/31 11:19:34;;;;;;;12.82;12.23;;;;;;;;;;5070688;28;20031;-60
2023/12/31 11:22:11;;;;;;;11.70;11.20;;;;;;;;;;5070441;28;20033;-61
2023/12/31 11:24:37;;;;;;;12.55;11.95;;;;;;;;;;5068307;28;20021;-61
2023/12/31 11:27:06;;;;;;;11.95;11.40;;;;;;;;;;5072191;28;20379;-60
2023/12/31 11:29:32;;;;;;;11.70;11.20;;;;;;;;;;5070684;28;20044;-61
2023/12/31 11:31:58;;;;;;;11.88;11.38;;;;;;;;;;5063905;28;20392;-60
2023/12/31 11:34:24;;;;;;;11.57;11.07;;;;;;;;;;5067762;28;20437;-60
2023/12/31 11:36:53;;;;;;;11.73;11.23;;;;;;;;;;5071718;28;20073;-60
2023/12/31 11:39:20;;;;;;;12.32;11.73;;;;;;;;;;5069526;28;20502;-62
2023/12/31 11:41:49;;;;;;;12.07;11.48;;;;;;;;;;5070386;28;20023;-61
2023/12/31 11:44:34;;;;;;;12.15;11.55;;;;;;;;;;5069121;28;20021;-60
2023/12/31 11:46:59;;;;;;;12.13;11.52;;;;;;;;;;5071701;28;20016;-62
2023/12/31 11:49:25;;;;;;;12.55;11.95;;;;;;;;;;5070426;28;20074;-60
2023/12/31 11:51:51;;;;;;;12.73;12.13;;;;;;;;;;5069702;28;20439;-60
2023/12/31 11:54:36;;;;;;;12.52;11.93;;;;;;;;;;5061710;28;20443;-60
2023/12/31 11:57:03;;;;;;;12.20;11.60;;;;;;;;;;5069252;28;20028;-60
2023/12/31 11:59:29;;;;;;;12.20;11.60;;;;;;;;;;5071212;28;20040;-60
2023/12/31 12:01:54;;;;;;;12.05;11.45;;;;;;;;;;5065851;28;20388;-63
2023/12/31 12:04:20;;;;;;;12.70;12.10;;;;;;;;;;5071347;28;20467;-60
2023/12/31 12:06:46;;;;;;;12.60;12.00;;;;;;;;;;5060755;28;20025;-62
2023/12/31 12:09:11;;;;;;;12.68;12.07;;;;;;;;;;5071122;28;20052;-60
2023/12/31 12:11:43;;;;;;;12.93;12.32;;;;;;;;;;5070734;28;20028;-61
2023/12/31 12:14:10;;;;;;;12.63;12.02;;;;;;;;;;5067655;28;20111;-62
2023/12/31 12:16:35;;;;;;;12.50;11.90;;;;;;;;;;5061606;28;20099;-61
2023/12/31 12:19:01;;;;;;;12.20;11.60;;;;;;;;;;5068583;28;20431;-60
2023/12/31 12:21:27;;;;;;;12.95;12.35;;;;;;;;;;5066437;28;20051;-61
2023/12/31 12:23:53;;;;;;;12.48;11.88;;;;;;;;;;5071025;28;20017;-61
2023/12/31 12:26:19;;;;;;;12.35;11.75;;;;;;;;;;5070963;28;20042;-62
2023/12/31 12:28:46;;;;;;;12.43;11.82;;;;;;;;;;5071026;28;20528;-62
2023/12/31 12:31:14;;;;;;;12.35;11.75;;;;;;;;;;5069580;28;20020;-61
2023/12/31 12:33:39;;;;;;;12.40;11.80;;;;;;;;;;5064075;28;20104;-63
2023/12/31 12:36:04;;;;;;;12.15;11.55;;;;;;;;;;5070888;28;20095;-61
2023/12/31 12:38:30;;;;;;;12.30;11.70;;;;;;;;;;5070610;28;20021;-61
2023/12/31 12:41:00;;;;;;;12.05;11.45;;;;;;;;;;5071066;28;20027;-61
2023/12/31 12:43:30;;;;;;;11.75;11.25;;;;;;;;;;5071216;28;20043;-60
2023/12/31 12:46:02;;;;;;;11.80;11.30;;;;;;;;;;5069822;28;20461;-61
2023/12/31 12:48:27;;;;;;;11.82;11.30;;;;;;;;;;5075035;28;20513;-61
2023/12/31 12:50:52;;;;;;;11.73;11.23;;;;;;;;;;5070841;28;20111;-62
2023/12/31 12:53:18;;;;;;;12.05;11.48;;;;;;;;;;5070669;28;20021;-61
2023/12/31 12:55:43;;;;;;;12.77;12.18;;;;;;;;;;5070964;28;20031;-62
2023/12/31 12:58:08;;;;;;;11.77;11.27;;;;;;;;;;5066150;28;20332;-60
2023/12/31 13:00:34;;;;;;;11.80;11.30;;;;;;;;;;5082491;28;20027;-61
2023/12/31 13:02:59;;;;;;;12.10;11.50;;;;;;;;;;5070677;28;20460;-61
2023/12/31 13:05:24;;;;;;;11.73;11.23;;;;;;;;;;5071414;28;20021;-61
2023/12/31 13:07:50;;;;;;;11.60;11.10;;;;;;;;;;5070836;28;20019;-61
2023/12/31 13:10:16;;;;;;;12.25;11.65;;;;;;;;;;5070660;28;20032;-61
2023/12/31 13:12:41;;;;;;;11.90;11.40;;;;;;;;;;5061962;28;20017;-60
2023/12/31 13:15:07;;;;;;;12.10;11.50;;;;;;;;;;5066808;28;20459;-61
2023/12/31 13:17:32;;;;;;;12.40;11.80;;;;;;;;;;5066284;28;20128;-62
2023/12/31 13:19:58;;;;;;;12.20;11.60;;;;;;;;;;5070263;28;20032;-60
2023/12/31 13:22:23;;;;;;;12.35;11.75;;;;;;;;;;5067946;28;20013;-60
2023/12/31 13:24:48;;;;;;;12.10;11.50;;;;;;;;;;5068566;28;20112;-61
2023/12/31 13:27:14;;;;;;;12.35;11.75;;;;;;;;;;5068796;28;20028;-61
2023/12/31 13:29:39;;;;;;;12.30;11.70;;;;;;;;;;5067756;28;20018;-61
2023/12/31 13:32:06;;;;;;;12.00;11.40;;;;;;;;;;5076964;28;20032;-61
2023/12/31 13:34:32;;;;;;;11.80;11.30;;;;;;;;;;5070235;28;20045;-61
2023/12/31 13:36:57;;;;;;;11.68;11.18;;;;;;;;;;5070407;28;20067;-60
2023/12/31 13:39:22;;;;;;;12.43;11.82;;;;;;;;;;5070166;28;20112;-62
2023/12/31 13:41:48;;;;;;;13.10;12.50;;;;;;;;;;5067939;28;20523;-60
2023/12/31 13:44:13;;;;;;;12.07;11.48;;;;;;;;;;5069564;28;20025;-61
2023/12/31 13:46:39;;;;;;;12.02;11.43;;;;;;;;;;5067175;28;20016;-61
2023/12/31 13:49:04;;;;;;;11.73;11.23;;;;;;;;;;5069767;28;20039;-61
2023/12/31 13:51:30;;;;;;;12.10;11.50;;;;;;;;;;5071060;28;20400;-60
2023/12/31 13:53:55;;;;;;;12.60;12.00;;;;;;;;;;5067730;28;20028;-60
2023/12/31 13:56:20;;;;;;;12.02;11.43;;;;;;;;;;5068671;28;20012;-61
2023/12/31 13:58:46;;;;;;;11.73;11.23;;;;;;;;;;5068272;28;20144;-62
2023/12/31 14:01:11;;;;;;;12.02;11.43;;;;;;;;;;5070064;28;20035;-61
2023/12/31 14:03:36;;;;;;;13.52;12.82;;;;;;;;;;5069311;28;20098;-61
2023/12/31 14:06:02;;;;;;;11.48;10.98;;;;;;;;;;5069508;28;20012;-61
2023/12/31 14:08:27;;;;;;;12.02;11.43;;;;;;;;;;5069270;28;20023;-62
2023/12/31 14:10:53;;;;;;;12.70;12.10;;;;;;;;;;5069267;28;20501;-61